Homestead ARB Airport
KHST : now visible

Aeroporto :











RITROVATECI SU...

 
LOGIN :

Iscrizione | Disclaimer

   EN    FR    IT 

 









Sommario :    VFR   VFR Marginale   IFR   IFR Intensivo   IFR Molto Intensivo
Visibilità : 
Base nubi : 
>= 8 km
>= 3000ft
5 / 8 km
1000 / 3000 ft
1500m / 5 km
500 / 1000 ft
800 / 1500m
200 / 500 ft
< 800m
< 200 ft
Simboli :   Temporali  Nebbia  Neve Forte  Precipitazioni Forti  Vento > 20 kt






- Altitudine del aeroporto : 5 ft


KHST - Homestead ARB

ULTIMO METAR :
  • 051356Z AUTO 16004KT 10SM FEW021 SCT034 BKN060 BKN085 29/26 A3001 RMK AO2 LTG DSNT NE-SE RAB27E53 SLP166 P0002 T02910257

METARs OBSOLETI :
  • 051327Z AUTO 00000KT 10SM -RA FEW065 FEW085 29/26 A3001 RMK AO2 LTG DSNT NE RAB27 SLP166
  • 051256Z AUTO 00000KT 10SM CLR 28/26 A3000 RMK AO2 LTG DSNT NE-E SLP162 T02750259
  • 051156Z AUTO 00000KT 10SM CLR 27/26 A2999 RMK AO2 LTG DSNT NE-E SLP159 60021 70056 T02690258 10282 20263 53009

TAF TAF KHST
Valido dal 05 a 11 ore il 06 a 17 ore UTC


051100Z 0511/0617 12003KT 9999 SCT021 QNH2997INS
TEMPO 0511/0514 9000 -SHRA BKN020
BECMG 0515/0516 12007KT 9999 VCTS SCT035CB QNH3000INS
TEMPO 0516/0523 VRB12G18KT 6000 TSRA BKN025CB
BECMG 0600/0601 08003KT 9999 NSW BKN020 QNH2997INS TX32/0516Z TN26/0511Z
FIR KZMA / America del Nord



MetMap, La meteo Aeronautica in un colpo d'occhio ! - Copyright ORBIFLY Dicembre 2007 - Disclaimer

ORBIFLY MET'MAP TEAM :

Programmazione e sviluppo : Alexandra Zaïnal
Concezione : Baudouin d'Aumeries
Aiuto per la programmazione : Marc-Olivier Méhu
Supporto tecnico e logistico : Manuel Goepfert
Aiuto per la traduzione : Arnaldo La Scala

Contatto : metmap@orbifly.com




FONTI E CREDITI :

   NOAA       Earth
Advisory